Time;durP1;ratioP1;P1;durP2;ratioP2;P2;SDS_P1;SDS_P2;PMS_P1;PMS_P2;Temp;Humidity;BMP_temperature;BMP_pressure;BME280_temperature;BME280_humidity;BME280_pressure;Samples;Min_cycle;Max_cycle;Signal;HPM_P1;HPM_P2
2022/04/22 00:01:17;;;;;;;350.37;94.07;;;;;;;;;;5056663;28;20492;-70
2022/04/22 00:03:46;;;;;;;353.40;88.47;;;;;;;;;;5057066;28;20465;-70
2022/04/22 00:06:19;;;;;;;349.10;89.60;;;;;;;;;;5056425;28;20480;-71
2022/04/22 00:08:48;;;;;;;355.50;95.50;;;;;;;;;;5055802;28;20481;-71
2022/04/22 00:11:31;;;;;;;359.77;96.30;;;;;;;;;;5056202;28;20477;-72
2022/04/22 00:14:07;;;;;;;361.63;104.47;;;;;;;;;;5056202;28;20472;-71
2022/04/22 00:16:42;;;;;;;369.73;95.00;;;;;;;;;;5055149;28;20456;-71
2022/04/22 00:19:09;;;;;;;356.37;91.13;;;;;;;;;;5055282;28;20469;-71
2022/04/22 00:21:41;;;;;;;358.17;91.53;;;;;;;;;;5057233;28;20511;-71
2022/04/22 00:24:36;;;;;;;358.53;92.73;;;;;;;;;;5056428;28;20560;-72
2022/04/22 00:27:24;;;;;;;357.27;93.77;;;;;;;;;;5053668;28;20466;-72
2022/04/22 00:29:52;;;;;;;355.27;93.70;;;;;;;;;;5055809;28;20578;-71
2022/04/22 00:32:35;;;;;;;359.43;96.20;;;;;;;;;;5056170;28;20458;-71
2022/04/22 00:35:04;;;;;;;351.97;94.00;;;;;;;;;;5056160;28;20865;-71
2022/04/22 00:37:32;;;;;;;347.03;87.63;;;;;;;;;;5055763;28;20888;-71
2022/04/22 00:39:59;;;;;;;350.23;91.70;;;;;;;;;;5056309;28;20476;-71
2022/04/22 00:42:28;;;;;;;358.63;97.27;;;;;;;;;;5055585;28;20794;-71
2022/04/22 00:45:13;;;;;;;364.10;98.27;;;;;;;;;;5056717;28;20465;-71
2022/04/22 00:47:44;;;;;;;362.73;96.17;;;;;;;;;;5055511;28;20891;-72
2022/04/22 00:50:15;;;;;;;361.17;95.20;;;;;;;;;;5056136;28;20851;-71
2022/04/22 00:52:46;;;;;;;358.63;88.93;;;;;;;;;;5055543;28;20469;-70
2022/04/22 00:55:22;;;;;;;357.30;87.27;;;;;;;;;;5056039;28;20909;-71
2022/04/22 00:58:01;;;;;;;354.40;89.43;;;;;;;;;;5055372;28;20453;-71
2022/04/22 01:00:29;;;;;;;356.77;90.50;;;;;;;;;;5056241;28;20493;-71
2022/04/22 01:02:58;;;;;;;359.83;89.77;;;;;;;;;;5052918;28;20457;-71
2022/04/22 01:10:59;;;;;;;349.87;86.37;;;;;;;;;;5054625;28;20510;-71
2022/04/22 01:13:26;;;;;;;360.80;90.00;;;;;;;;;;5055567;28;20865;-71
2022/04/22 01:15:54;;;;;;;359.20;91.90;;;;;;;;;;5054683;28;20557;-71
2022/04/22 01:18:27;;;;;;;354.57;87.10;;;;;;;;;;5054894;28;20449;-72
2022/04/22 01:20:54;;;;;;;353.87;87.97;;;;;;;;;;5054568;28;20491;-71
2022/04/22 01:23:24;;;;;;;357.00;87.20;;;;;;;;;;5055437;28;20562;-71
2022/04/22 01:25:53;;;;;;;354.50;81.97;;;;;;;;;;5055141;28;20483;-71
2022/04/22 01:28:22;;;;;;;357.50;88.37;;;;;;;;;;5045654;28;20538;-71
2022/04/22 01:30:49;;;;;;;361.47;87.70;;;;;;;;;;5054657;28;20968;-71
2022/04/22 01:33:17;;;;;;;362.87;88.60;;;;;;;;;;5055252;28;20483;-71
2022/04/22 01:35:46;;;;;;;354.17;83.20;;;;;;;;;;5055355;28;20497;-71
2022/04/22 01:38:14;;;;;;;358.43;89.27;;;;;;;;;;5055100;28;20583;-71
2022/04/22 01:40:43;;;;;;;357.33;88.23;;;;;;;;;;5055570;28;20472;-71
2022/04/22 01:43:11;;;;;;;348.27;81.97;;;;;;;;;;5055021;28;20469;-71
2022/04/22 01:45:39;;;;;;;350.27;84.13;;;;;;;;;;5054740;28;20468;-71
2022/04/22 01:48:06;;;;;;;345.27;81.17;;;;;;;;;;5054675;28;20485;-71
2022/04/22 01:50:37;;;;;;;358.80;86.57;;;;;;;;;;5054831;28;20495;-71
2022/04/22 01:53:06;;;;;;;363.27;90.43;;;;;;;;;;5055427;28;20493;-71
2022/04/22 01:55:34;;;;;;;350.50;87.83;;;;;;;;;;5054095;28;20536;-71
2022/04/22 01:58:03;;;;;;;353.20;86.50;;;;;;;;;;5055390;28;20842;-71
2022/04/22 02:00:31;;;;;;;347.57;82.00;;;;;;;;;;5059114;28;20475;-71
2022/04/22 02:02:59;;;;;;;351.37;85.17;;;;;;;;;;5075221;28;20464;-71
2022/04/22 02:05:27;;;;;;;353.27;83.53;;;;;;;;;;5068255;28;20465;-71
2022/04/22 02:07:55;;;;;;;356.03;86.73;;;;;;;;;;5054404;28;20449;-71
2022/04/22 02:10:22;;;;;;;354.60;86.47;;;;;;;;;;5066947;28;20476;-71
2022/04/22 02:12:50;;;;;;;352.17;85.90;;;;;;;;;;5074410;28;20445;-71
2022/04/22 02:15:20;;;;;;;348.83;83.63;;;;;;;;;;5073732;28;20509;-71
2022/04/22 02:17:48;;;;;;;354.53;84.77;;;;;;;;;;5074577;28;20602;-71
2022/04/22 02:20:16;;;;;;;361.23;91.80;;;;;;;;;;5058941;28;20464;-71
2022/04/22 02:22:44;;;;;;;352.23;81.93;;;;;;;;;;5058282;28;20850;-71
2022/04/22 02:25:12;;;;;;;345.57;85.07;;;;;;;;;;5057944;28;20530;-71
2022/04/22 02:30:27;;;;;;;348.13;83.53;;;;;;;;;;5057311;28;20484;-71
2022/04/22 02:32:54;;;;;;;352.93;88.73;;;;;;;;;;5058204;28;20467;-72
2022/04/22 02:35:23;;;;;;;347.70;83.33;;;;;;;;;;5058426;28;20520;-71
2022/04/22 02:37:54;;;;;;;350.47;85.53;;;;;;;;;;5058226;28;20461;-71
2022/04/22 02:45:50;;;;;;;348.53;83.17;;;;;;;;;;5057628;28;20451;-71
2022/04/22 02:48:18;;;;;;;343.77;82.80;;;;;;;;;;5057078;28;20734;-71
2022/04/22 02:50:46;;;;;;;348.67;83.30;;;;;;;;;;5057131;28;20776;-72
2022/04/22 02:53:14;;;;;;;347.50;85.30;;;;;;;;;;5056389;28;20485;-72
2022/04/22 02:55:46;;;;;;;346.17;82.90;;;;;;;;;;5057504;28;20869;-71
2022/04/22 02:58:14;;;;;;;354.90;89.43;;;;;;;;;;5057407;28;20530;-71
2022/04/22 03:00:42;;;;;;;346.47;83.77;;;;;;;;;;5056769;28;20733;-71
2022/04/22 03:03:12;;;;;;;344.80;81.77;;;;;;;;;;5058152;28;20464;-71
2022/04/22 03:05:40;;;;;;;347.27;84.63;;;;;;;;;;5057124;28;20461;-71
2022/04/22 03:08:08;;;;;;;350.27;83.37;;;;;;;;;;5057794;28;20454;-71
2022/04/22 03:10:36;;;;;;;347.70;81.10;;;;;;;;;;5057207;28;20488;-71
2022/04/22 03:13:04;;;;;;;354.33;85.97;;;;;;;;;;5058052;28;20516;-71
2022/04/22 03:15:33;;;;;;;350.27;87.80;;;;;;;;;;5056957;28;20460;-71
2022/04/22 03:18:01;;;;;;;346.20;87.60;;;;;;;;;;5057136;28;20867;-71
2022/04/22 03:20:30;;;;;;;350.60;86.80;;;;;;;;;;5065486;28;20532;-70
2022/04/22 03:22:58;;;;;;;345.50;88.50;;;;;;;;;;5077280;28;20487;-71
2022/04/22 03:25:26;;;;;;;345.07;83.13;;;;;;;;;;5077702;28;20460;-72
2022/04/22 03:27:54;;;;;;;345.30;84.87;;;;;;;;;;5076831;28;20461;-71
2022/04/22 03:30:22;;;;;;;334.17;81.17;;;;;;;;;;5076716;28;20492;-71
2022/04/22 03:32:50;;;;;;;340.87;81.40;;;;;;;;;;5076433;28;20474;-71
2022/04/22 03:35:18;;;;;;;341.63;82.90;;;;;;;;;;5078010;28;20467;-71
2022/04/22 03:37:47;;;;;;;335.13;81.00;;;;;;;;;;5077456;28;20484;-71
2022/04/22 03:40:15;;;;;;;342.63;83.97;;;;;;;;;;5077429;28;20460;-72
2022/04/22 03:42:46;;;;;;;340.40;82.73;;;;;;;;;;5077625;28;20849;-72
2022/04/22 03:45:14;;;;;;;340.73;84.10;;;;;;;;;;5077281;28;20786;-72
2022/04/22 03:47:42;;;;;;;340.53;79.57;;;;;;;;;;5074285;28;20456;-72
2022/04/22 03:50:10;;;;;;;337.83;81.27;;;;;;;;;;5058262;28;20929;-71
2022/04/22 03:52:43;;;;;;;333.57;77.90;;;;;;;;;;5060059;28;20455;-72
2022/04/22 03:55:13;;;;;;;337.33;77.63;;;;;;;;;;5077233;28;20460;-72
2022/04/22 04:00:26;;;;;;;340.87;82.47;;;;;;;;;;5074697;28;20871;-71
2022/04/22 04:02:53;;;;;;;343.23;82.77;;;;;;;;;;5076571;28;20460;-72
2022/04/22 04:05:21;;;;;;;344.67;83.67;;;;;;;;;;5076091;28;20491;-71
2022/04/22 04:07:49;;;;;;;345.17;85.67;;;;;;;;;;5076075;28;20452;-72
2022/04/22 04:16:00;;;;;;;348.10;85.10;;;;;;;;;;5076709;28;20451;-71
2022/04/22 04:18:29;;;;;;;354.03;80.23;;;;;;;;;;5076812;28;20475;-71
2022/04/22 04:23:42;;;;;;;351.57;84.07;;;;;;;;;;5075231;28;20451;-71
2022/04/22 04:26:12;;;;;;;342.57;83.50;;;;;;;;;;5075452;28;20483;-72
2022/04/22 04:28:40;;;;;;;347.17;83.23;;;;;;;;;;5075780;28;20560;-71
2022/04/22 04:31:11;;;;;;;348.03;84.77;;;;;;;;;;5076287;28;20488;-71
2022/04/22 04:33:39;;;;;;;344.20;80.53;;;;;;;;;;5076243;28;20511;-72
2022/04/22 04:36:10;;;;;;;345.43;85.27;;;;;;;;;;5075536;28;20496;-72
2022/04/22 04:38:38;;;;;;;348.07;85.77;;;;;;;;;;5075397;28;20543;-72
2022/04/22 04:43:58;;;;;;;337.17;78.87;;;;;;;;;;5068951;28;20483;-70
2022/04/22 04:46:26;;;;;;;345.40;82.53;;;;;;;;;;5075755;28;20492;-71
2022/04/22 04:48:57;;;;;;;351.63;88.53;;;;;;;;;;5074464;28;20555;-71
2022/04/22 04:51:25;;;;;;;342.70;83.70;;;;;;;;;;5075846;28;20496;-71
2022/04/22 04:53:53;;;;;;;345.93;82.63;;;;;;;;;;5074595;28;20457;-71
2022/04/22 04:56:20;;;;;;;351.60;86.10;;;;;;;;;;5075393;28;20474;-71
2022/04/22 04:58:48;;;;;;;354.97;88.40;;;;;;;;;;5074462;28;20518;-71
2022/04/22 05:01:18;;;;;;;352.40;90.40;;;;;;;;;;5072761;28;20482;-71
2022/04/22 05:03:45;;;;;;;355.63;90.10;;;;;;;;;;5056244;28;20481;-71
2022/04/22 05:06:17;;;;;;;358.10;91.97;;;;;;;;;;5054408;28;20504;-70
2022/04/22 05:08:49;;;;;;;352.87;86.40;;;;;;;;;;5060446;28;20522;-71
2022/04/22 05:11:17;;;;;;;345.87;86.27;;;;;;;;;;5056964;28;20485;-70
2022/04/22 05:13:46;;;;;;;358.47;88.30;;;;;;;;;;5054852;28;20978;-71
2022/04/22 05:16:14;;;;;;;356.40;90.60;;;;;;;;;;5053269;28;20525;-70
2022/04/22 05:18:43;;;;;;;355.90;86.37;;;;;;;;;;5053330;28;20464;-70
2022/04/22 05:21:11;;;;;;;354.90;88.30;;;;;;;;;;5051329;28;21124;-71
2022/04/22 05:23:39;;;;;;;353.27;90.10;;;;;;;;;;5050549;28;21080;-71
2022/04/22 05:26:07;;;;;;;352.03;86.27;;;;;;;;;;5052401;28;20456;-71
2022/04/22 05:28:35;;;;;;;353.20;89.17;;;;;;;;;;5052668;28;20445;-70
2022/04/22 05:33:51;;;;;;;356.00;89.43;;;;;;;;;;5051552;28;20449;-70
2022/04/22 05:36:21;;;;;;;350.17;91.87;;;;;;;;;;5049730;28;20472;-70
2022/04/22 05:38:51;;;;;;;365.70;99.00;;;;;;;;;;5048659;28;20492;-71
2022/04/22 05:41:20;;;;;;;356.00;90.93;;;;;;;;;;5043957;28;20531;-71
2022/04/22 05:43:48;;;;;;;369.20;91.83;;;;;;;;;;5051480;28;20503;-72
2022/04/22 05:46:18;;;;;;;360.27;92.47;;;;;;;;;;5051250;28;20469;-71
2022/04/22 05:48:46;;;;;;;359.63;94.43;;;;;;;;;;5051684;28;20881;-71
2022/04/22 05:51:15;;;;;;;348.57;86.03;;;;;;;;;;5052655;28;20485;-71
2022/04/22 05:53:47;;;;;;;360.20;92.80;;;;;;;;;;5050329;28;20464;-71
2022/04/22 05:56:15;;;;;;;355.30;90.87;;;;;;;;;;5054235;28;20760;-71
2022/04/22 05:58:43;;;;;;;357.20;97.03;;;;;;;;;;5055994;28;20453;-71
2022/04/22 06:01:10;;;;;;;348.97;85.83;;;;;;;;;;5055743;28;20472;-71
2022/04/22 06:03:38;;;;;;;349.00;89.73;;;;;;;;;;5053245;28;20856;-71
2022/04/22 06:06:06;;;;;;;350.50;92.03;;;;;;;;;;5055862;28;20890;-71
2022/04/22 06:11:21;;;;;;;346.30;89.07;;;;;;;;;;5056540;28;20504;-71
2022/04/22 06:13:49;;;;;;;352.83;92.20;;;;;;;;;;5044000;28;20948;-71
2022/04/22 06:16:17;;;;;;;351.30;89.43;;;;;;;;;;5075823;28;20456;-70
2022/04/22 06:18:46;;;;;;;349.53;90.30;;;;;;;;;;5060338;28;20462;-71
2022/04/22 06:21:17;;;;;;;357.97;93.53;;;;;;;;;;5057086;28;20880;-70
2022/04/22 06:23:49;;;;;;;361.40;97.73;;;;;;;;;;5052997;28;20451;-72
2022/04/22 06:26:19;;;;;;;354.37;95.03;;;;;;;;;;5047615;28;20454;-72
2022/04/22 06:28:47;;;;;;;355.93;93.37;;;;;;;;;;5055811;28;20460;-72
2022/04/22 06:31:16;;;;;;;351.27;92.80;;;;;;;;;;5055921;28;20882;-72
2022/04/22 06:33:46;;;;;;;354.07;94.47;;;;;;;;;;5055639;28;20457;-72
2022/04/22 06:36:15;;;;;;;360.27;96.80;;;;;;;;;;5054509;28;21041;-72
2022/04/22 06:38:46;;;;;;;356.27;93.67;;;;;;;;;;5055145;28;20475;-73
2022/04/22 06:46:47;;;;;;;359.67;94.70;;;;;;;;;;5066062;28;20844;-73
2022/04/22 06:49:16;;;;;;;359.07;95.23;;;;;;;;;;5076703;28;20464;-73
2022/04/22 06:51:54;;;;;;;371.33;110.70;;;;;;;;;;5072906;28;20773;-73
2022/04/22 06:54:22;;;;;;;360.63;95.87;;;;;;;;;;5038675;28;20461;-73
2022/04/22 06:56:52;;;;;;;357.50;97.60;;;;;;;;;;5055601;28;20765;-73
2022/04/22 06:59:24;;;;;;;360.07;94.80;;;;;;;;;;5061213;28;20491;-72
2022/04/22 07:01:53;;;;;;;353.27;97.40;;;;;;;;;;5075155;28;20812;-73
2022/04/22 07:04:21;;;;;;;360.33;94.20;;;;;;;;;;5075701;28;20878;-72
2022/04/22 07:06:49;;;;;;;363.27;99.67;;;;;;;;;;5058483;28;20460;-72
2022/04/22 07:09:22;;;;;;;363.03;98.73;;;;;;;;;;5059031;28;20462;-72
2022/04/22 07:11:53;;;;;;;359.27;96.77;;;;;;;;;;5044847;28;20482;-73
2022/04/22 07:14:29;;;;;;;359.80;97.57;;;;;;;;;;5042343;28;20454;-72
2022/04/22 07:16:57;;;;;;;362.43;97.10;;;;;;;;;;5041104;28;20461;-72
2022/04/22 07:19:25;;;;;;;357.13;96.60;;;;;;;;;;5053354;28;20495;-72
2022/04/22 07:21:53;;;;;;;364.33;101.53;;;;;;;;;;5063373;28;20456;-72
2022/04/22 07:24:30;;;;;;;363.30;102.13;;;;;;;;;;5056424;28;20512;-72
2022/04/22 07:27:00;;;;;;;365.00;99.27;;;;;;;;;;5054639;28;20908;-72
2022/04/22 07:29:29;;;;;;;367.93;104.63;;;;;;;;;;5054502;28;20920;-71
2022/04/22 07:31:58;;;;;;;373.90;105.00;;;;;;;;;;5053858;28;20757;-72
2022/04/22 07:34:30;;;;;;;357.27;95.57;;;;;;;;;;5062478;28;20454;-72
2022/04/22 07:37:02;;;;;;;359.87;99.10;;;;;;;;;;5052443;28;20468;-73
2022/04/22 07:39:38;;;;;;;366.60;101.43;;;;;;;;;;5061319;28;20458;-72
2022/04/22 07:42:18;;;;;;;370.80;101.60;;;;;;;;;;5051703;28;20473;-73
2022/04/22 07:47:41;;;;;;;365.47;98.30;;;;;;;;;;5053919;28;20448;-73
2022/04/22 07:50:09;;;;;;;370.67;106.00;;;;;;;;;;5054496;28;20510;-72
2022/04/22 07:52:45;;;;;;;375.10;107.73;;;;;;;;;;5043397;28;20486;-72
2022/04/22 07:55:14;;;;;;;374.80;106.10;;;;;;;;;;5033955;28;20508;-73
2022/04/22 07:57:46;;;;;;;370.53;106.67;;;;;;;;;;5044991;28;20683;-73
2022/04/22 08:00:18;;;;;;;364.27;95.60;;;;;;;;;;5035165;28;20462;-73
2022/04/22 08:02:47;;;;;;;360.40;97.60;;;;;;;;;;5051033;28;20476;-72
2022/04/22 08:05:19;;;;;;;368.20;106.00;;;;;;;;;;5064877;28;20457;-73
2022/04/22 08:07:48;;;;;;;367.53;105.43;;;;;;;;;;5053006;28;20544;-73
2022/04/22 08:10:16;;;;;;;370.80;106.40;;;;;;;;;;5053700;28;20544;-73
2022/04/22 08:12:52;;;;;;;367.53;105.87;;;;;;;;;;5053664;28;20474;-73
2022/04/22 08:15:25;;;;;;;374.37;116.10;;;;;;;;;;5063468;28;20467;-72
2022/04/22 08:17:53;;;;;;;374.07;107.20;;;;;;;;;;5053532;28;20465;-71
2022/04/22 08:20:38;;;;;;;366.43;105.30;;;;;;;;;;5053454;28;20461;-72
2022/04/22 08:23:23;;;;;;;370.63;103.20;;;;;;;;;;5047744;28;20890;-72
2022/04/22 08:25:51;;;;;;;372.77;111.03;;;;;;;;;;5053401;28;20478;-73
2022/04/22 08:28:26;;;;;;;374.40;112.67;;;;;;;;;;5053409;28;20450;-72
2022/04/22 08:31:16;;;;;;;368.47;104.77;;;;;;;;;;5053570;28;20457;-71
2022/04/22 08:33:55;;;;;;;369.43;105.70;;;;;;;;;;5050062;28;20935;-72
2022/04/22 08:36:31;;;;;;;379.57;110.33;;;;;;;;;;5060015;28;20468;-72
2022/04/22 08:38:59;;;;;;;376.70;110.20;;;;;;;;;;5059410;28;20528;-72
2022/04/22 08:41:31;;;;;;;376.90;110.00;;;;;;;;;;5074246;28;20472;-72
2022/04/22 08:44:01;;;;;;;380.13;118.50;;;;;;;;;;5069946;28;20540;-72
2022/04/22 08:52:08;;;;;;;377.63;116.90;;;;;;;;;;5050174;28;20572;-70
2022/04/22 08:54:39;;;;;;;380.93;119.37;;;;;;;;;;5049494;28;20465;-74
2022/04/22 08:57:07;;;;;;;390.17;119.47;;;;;;;;;;5052123;28;20468;-71
2022/04/22 08:59:37;;;;;;;388.90;120.93;;;;;;;;;;5050926;28;20771;-71
2022/04/22 09:02:15;;;;;;;389.93;131.33;;;;;;;;;;5050911;28;20466;-70
2022/04/22 09:04:50;;;;;;;389.80;130.30;;;;;;;;;;5070053;28;20461;-71
2022/04/22 09:07:21;;;;;;;394.20;130.07;;;;;;;;;;5044976;28;20546;-71
2022/04/22 09:09:51;;;;;;;384.47;119.20;;;;;;;;;;5054816;28;20884;-71
2022/04/22 09:12:21;;;;;;;388.10;125.77;;;;;;;;;;5053589;28;20735;-73
2022/04/22 09:15:00;;;;;;;400.90;137.23;;;;;;;;;;5052825;28;20523;-72
2022/04/22 09:17:32;;;;;;;392.73;130.73;;;;;;;;;;5051858;28;20534;-72
2022/04/22 09:20:07;;;;;;;391.80;136.70;;;;;;;;;;5052218;28;20484;-70
2022/04/22 09:22:48;;;;;;;393.40;131.00;;;;;;;;;;5043013;28;20481;-72
2022/04/22 09:25:26;;;;;;;393.47;134.50;;;;;;;;;;5056859;28;20451;-72
2022/04/22 09:28:16;;;;;;;384.80;127.00;;;;;;;;;;5057484;28;20599;-72
2022/04/22 09:31:04;;;;;;;390.90;130.10;;;;;;;;;;5045230;28;20448;-72
2022/04/22 09:33:45;;;;;;;387.93;133.63;;;;;;;;;;5052596;28;20477;-71
2022/04/22 09:44:59;;;;;;;403.47;138.90;;;;;;;;;;5059522;28;20545;-72
2022/04/22 09:47:34;;;;;;;392.13;133.80;;;;;;;;;;5046859;28;20498;-71
2022/04/22 09:50:10;;;;;;;404.53;149.90;;;;;;;;;;5049583;28;20559;-72
2022/04/22 09:52:43;;;;;;;388.90;135.43;;;;;;;;;;5053394;28;20571;-71
2022/04/22 09:55:15;;;;;;;398.83;149.27;;;;;;;;;;5053160;28;20469;-71
2022/04/22 09:58:06;;;;;;;401.33;155.17;;;;;;;;;;5049315;28;21061;-71
2022/04/22 10:00:34;;;;;;;404.57;145.90;;;;;;;;;;5046159;28;20527;-71
2022/04/22 10:03:04;;;;;;;399.17;153.90;;;;;;;;;;5047918;28;20473;-70
2022/04/22 10:05:33;;;;;;;402.77;155.07;;;;;;;;;;5050277;28;20519;-72
2022/04/22 10:08:05;;;;;;;404.50;155.90;;;;;;;;;;5048357;28;20766;-71
2022/04/22 10:10:37;;;;;;;393.90;146.63;;;;;;;;;;5044720;28;20935;-73
2022/04/22 10:13:10;;;;;;;400.67;152.80;;;;;;;;;;5043697;28;20485;-71
2022/04/22 10:15:39;;;;;;;404.50;175.33;;;;;;;;;;5046186;28;20859;-72
2022/04/22 10:18:12;;;;;;;406.77;172.00;;;;;;;;;;5045872;28;20704;-71
2022/04/22 10:20:43;;;;;;;410.60;182.73;;;;;;;;;;5059833;28;20486;-72
2022/04/22 10:23:13;;;;;;;401.47;170.30;;;;;;;;;;5047796;28;20576;-71
2022/04/22 10:25:41;;;;;;;411.93;175.67;;;;;;;;;;5053286;28;20481;-72
2022/04/22 10:28:11;;;;;;;408.33;195.70;;;;;;;;;;5043854;28;20893;-71
2022/04/22 10:30:41;;;;;;;408.53;184.07;;;;;;;;;;5043354;28;20453;-71
2022/04/22 10:33:15;;;;;;;438.80;218.27;;;;;;;;;;5039443;28;20494;-72
2022/04/22 10:35:47;;;;;;;418.30;225.73;;;;;;;;;;5032589;28;20560;-72
2022/04/22 10:41:23;;;;;;;403.57;178.67;;;;;;;;;;5032767;28;20472;-72
2022/04/22 10:52:23;;;;;;;406.80;203.10;;;;;;;;;;5035541;28;20492;-71
2022/04/22 10:55:22;;;;;;;;;;;;;;;;;;;;;
2022/04/22 10:58:16;;;;;;;419.33;207.87;;;;;;;;;;5033293;28;20599;-73
2022/04/22 11:00:47;;;;;;;415.90;206.90;;;;;;;;;;5034584;28;20457;-72
2022/04/22 11:03:16;;;;;;;407.67;205.93;;;;;;;;;;5059108;28;20975;-72
2022/04/22 11:05:53;;;;;;;404.70;204.67;;;;;;;;;;5054064;28;20523;-72
2022/04/22 11:08:29;;;;;;;406.40;192.33;;;;;;;;;;5050765;28;20449;-73
2022/04/22 11:11:10;;;;;;;410.80;200.47;;;;;;;;;;5052011;28;20459;-72
2022/04/22 11:13:43;;;;;;;401.40;169.47;;;;;;;;;;5053176;28;20533;-73
2022/04/22 11:16:14;;;;;;;402.57;180.77;;;;;;;;;;5038524;28;20458;-74
2022/04/22 11:18:45;;;;;;;394.90;172.17;;;;;;;;;;5055597;28;20464;-73
2022/04/22 11:21:15;;;;;;;402.93;183.73;;;;;;;;;;5067548;28;20546;-73
2022/04/22 11:23:51;;;;;;;406.43;194.27;;;;;;;;;;5054606;28;20911;-73
2022/04/22 11:26:25;;;;;;;403.90;180.53;;;;;;;;;;5052362;28;20552;-73
2022/04/22 11:28:52;;;;;;;398.20;178.13;;;;;;;;;;5052744;28;21083;-73
2022/04/22 11:31:21;;;;;;;407.17;178.70;;;;;;;;;;5070924;28;20456;-73
2022/04/22 11:34:01;;;;;;;405.93;177.97;;;;;;;;;;5057585;28;20562;-73
2022/04/22 11:36:34;;;;;;;406.23;199.20;;;;;;;;;;5050450;28;20845;-72
2022/04/22 11:39:07;;;;;;;402.07;191.30;;;;;;;;;;5052440;28;20460;-72
2022/04/22 11:41:51;;;;;;;398.40;175.10;;;;;;;;;;5056527;28;20456;-71
2022/04/22 11:44:21;;;;;;;408.90;201.00;;;;;;;;;;5072986;28;20464;-70
2022/04/22 11:46:51;;;;;;;400.27;178.97;;;;;;;;;;5073167;28;20459;-72
2022/04/22 11:49:22;;;;;;;412.00;213.70;;;;;;;;;;5072599;28;20538;-71
2022/04/22 11:54:48;;;;;;;391.13;164.47;;;;;;;;;;5056122;28;20555;-73
2022/04/22 11:57:21;;;;;;;410.37;199.67;;;;;;;;;;5051637;28;20453;-73
2022/04/22 12:05:32;;;;;;;408.40;203.37;;;;;;;;;;5073828;28;20547;-72
2022/04/22 12:05:45;;;;;;;422.10;232.70;;;;;;;;;;5051956;28;20429;-72
2022/04/22 12:08:16;;;;;;;414.03;231.77;;;;;;;;;;5053500;28;20766;-74
2022/04/22 12:10:59;;;;;;;413.53;218.33;;;;;;;;;;5010867;28;20498;-72
2022/04/22 12:13:35;;;;;;;421.53;247.50;;;;;;;;;;5031535;28;20574;-74
2022/04/22 12:16:03;;;;;;;413.10;227.73;;;;;;;;;;5047258;28;20519;-74
2022/04/22 12:18:35;;;;;;;415.27;232.93;;;;;;;;;;5053187;28;20534;-74
2022/04/22 12:21:06;;;;;;;411.70;200.57;;;;;;;;;;5060870;28;20468;-74
2022/04/22 12:23:45;;;;;;;417.17;234.17;;;;;;;;;;5070273;28;20857;-74
2022/04/22 12:26:44;;;;;;;418.03;237.20;;;;;;;;;;5030760;28;20468;-74
2022/04/22 12:29:18;;;;;;;407.00;198.93;;;;;;;;;;5023962;28;20492;-73
2022/04/22 12:31:49;;;;;;;417.13;232.60;;;;;;;;;;5052751;28;20487;-74
2022/04/22 12:34:30;;;;;;;411.43;219.00;;;;;;;;;;5045185;28;20469;-74
2022/04/22 12:37:08;;;;;;;414.87;211.97;;;;;;;;;;5053285;28;20458;-75
2022/04/22 12:39:38;;;;;;;423.53;212.47;;;;;;;;;;5053136;28;20461;-74
2022/04/22 12:42:30;;;;;;;411.90;201.00;;;;;;;;;;5053942;28;20454;-75
2022/04/22 12:54:05;;;;;;;406.13;202.23;;;;;;;;;;5033537;28;20536;-74
2022/04/22 12:56:38;;;;;;;404.50;187.33;;;;;;;;;;5037219;28;20454;-74
2022/04/22 12:59:15;;;;;;;417.60;215.17;;;;;;;;;;5046014;28;20466;-74
2022/04/22 13:01:46;;;;;;;418.33;211.97;;;;;;;;;;5052720;28;20840;-73
2022/04/22 13:04:23;;;;;;;419.27;237.13;;;;;;;;;;5065161;28;20872;-74
2022/04/22 13:06:54;;;;;;;414.47;219.47;;;;;;;;;;5073059;28;21098;-73
2022/04/22 13:09:25;;;;;;;420.63;229.30;;;;;;;;;;5060603;28;20457;-74
2022/04/22 13:11:56;;;;;;;417.73;236.63;;;;;;;;;;5046591;28;20472;-73
2022/04/22 13:14:24;;;;;;;419.90;222.87;;;;;;;;;;5051915;28;20460;-73
2022/04/22 13:16:58;;;;;;;408.47;198.07;;;;;;;;;;5037447;28;20468;-74
2022/04/22 13:19:38;;;;;;;428.00;242.33;;;;;;;;;;5053110;28;20910;-74
2022/04/22 13:24:49;;;;;;;428.47;228.40;;;;;;;;;;5052298;28;20591;-74
2022/04/22 13:27:17;;;;;;;416.90;207.53;;;;;;;;;;5051455;28;20454;-72
2022/04/22 13:29:47;;;;;;;414.53;205.20;;;;;;;;;;5046759;28;20473;-73
2022/04/22 13:32:18;;;;;;;404.20;186.13;;;;;;;;;;5032186;28;20858;-73
2022/04/22 13:34:48;;;;;;;403.80;185.80;;;;;;;;;;5049605;28;20457;-73
2022/04/22 13:37:26;;;;;;;413.57;214.10;;;;;;;;;;5052400;28;20549;-73
2022/04/22 13:40:01;;;;;;;407.30;178.40;;;;;;;;;;5042847;28;20464;-72
2022/04/22 13:42:40;;;;;;;404.97;189.47;;;;;;;;;;5063561;28;20463;-73
2022/04/22 13:53:43;;;;;;;410.90;190.73;;;;;;;;;;5032117;28;20478;-72
2022/04/22 13:56:11;;;;;;;409.40;194.90;;;;;;;;;;5053155;28;20470;-71
2022/04/22 13:58:41;;;;;;;410.40;210.43;;;;;;;;;;5049437;28;20457;-74
2022/04/22 14:01:14;;;;;;;410.97;200.10;;;;;;;;;;5050590;28;20552;-72
2022/04/22 14:03:45;;;;;;;404.37;191.83;;;;;;;;;;5051372;28;20457;-72
2022/04/22 14:06:13;;;;;;;405.73;207.57;;;;;;;;;;5052096;28;20877;-73
2022/04/22 14:08:42;;;;;;;401.03;190.53;;;;;;;;;;5046290;28;20781;-73
2022/04/22 14:11:19;;;;;;;401.23;178.40;;;;;;;;;;5034493;28;20470;-73
2022/04/22 14:13:58;;;;;;;409.50;191.60;;;;;;;;;;5036500;28;20591;-72
2022/04/22 14:16:31;;;;;;;412.40;199.10;;;;;;;;;;5053602;28;20465;-73
2022/04/22 14:19:13;;;;;;;417.43;216.73;;;;;;;;;;5071219;28;20865;-76
2022/04/22 14:21:43;;;;;;;406.93;189.77;;;;;;;;;;5075856;28;20454;-74
2022/04/22 14:24:12;;;;;;;413.97;207.00;;;;;;;;;;5056059;28;20530;-72
2022/04/22 14:26:40;;;;;;;415.47;221.43;;;;;;;;;;5052149;28;20453;-73
2022/04/22 14:29:12;;;;;;;413.10;193.03;;;;;;;;;;5044172;28;20461;-73
2022/04/22 14:31:53;;;;;;;415.63;227.60;;;;;;;;;;5036237;28;20477;-72
2022/04/22 14:34:28;;;;;;;407.17;191.20;;;;;;;;;;5034765;28;20493;-73
2022/04/22 14:36:56;;;;;;;412.20;203.03;;;;;;;;;;5034350;28;20897;-73
2022/04/22 14:39:25;;;;;;;402.70;188.83;;;;;;;;;;5052679;28;20487;-73
2022/04/22 14:41:56;;;;;;;404.13;191.60;;;;;;;;;;5059886;28;20561;-74
2022/04/22 14:44:24;;;;;;;420.17;232.37;;;;;;;;;;5074976;28;20459;-72
2022/04/22 14:46:55;;;;;;;407.07;194.87;;;;;;;;;;5075981;28;20455;-73
2022/04/22 14:49:42;;;;;;;405.13;188.20;;;;;;;;;;5055089;28;20473;-74
2022/04/22 14:52:19;;;;;;;405.90;194.67;;;;;;;;;;5054428;28;20765;-74
2022/04/22 14:54:59;;;;;;;404.80;188.37;;;;;;;;;;5055097;28;20991;-73
2022/04/22 14:57:31;;;;;;;406.73;188.30;;;;;;;;;;5054138;28;20515;-74
2022/04/22 15:00:18;;;;;;;403.20;176.53;;;;;;;;;;5053324;28;20453;-73
2022/04/22 15:15:32;;;;;;;403.77;174.13;;;;;;;;;;5050570;28;20480;-73
2022/04/22 15:24:15;;;;;;;413.93;182.43;;;;;;;;;;5053695;28;20433;-73
2022/04/22 15:26:45;;;;;;;418.77;205.20;;;;;;;;;;5053191;28;20994;-74
2022/04/22 15:29:23;;;;;;;421.80;215.33;;;;;;;;;;5053770;28;20458;-73
2022/04/22 15:32:07;;;;;;;418.17;220.77;;;;;;;;;;5052476;28;20469;-73
2022/04/22 15:34:37;;;;;;;420.87;223.40;;;;;;;;;;5051159;28;21021;-72
2022/04/22 15:37:15;;;;;;;404.50;182.83;;;;;;;;;;5053160;28;20623;-72
2022/04/22 15:39:49;;;;;;;409.80;191.10;;;;;;;;;;5052260;28;20491;-73
2022/04/22 15:42:32;;;;;;;;;;;;;;;;;;;;;
2022/04/22 15:45:04;;;;;;;400.63;177.03;;;;;;;;;;5050486;28;20471;-72
2022/04/22 15:47:44;;;;;;;403.23;195.23;;;;;;;;;;5053678;28;20425;-73
2022/04/22 15:50:13;;;;;;;405.23;179.03;;;;;;;;;;5052227;28;20476;-72
2022/04/22 15:52:48;;;;;;;393.10;167.60;;;;;;;;;;5048408;28;20469;-72
2022/04/22 15:55:28;;;;;;;396.27;171.87;;;;;;;;;;5051382;28;20465;-73
2022/04/22 15:58:01;;;;;;;397.07;167.63;;;;;;;;;;5052088;28;20461;-73
2022/04/22 16:06:22;;;;;;;409.03;197.20;;;;;;;;;;5033865;28;20454;-73
2022/04/22 16:09:07;;;;;;;400.80;177.50;;;;;;;;;;5051271;28;20463;-72
2022/04/22 16:20:10;;;;;;;401.70;176.40;;;;;;;;;;5048718;28;20952;-72
2022/04/22 16:22:45;;;;;;;400.13;173.43;;;;;;;;;;5052942;28;20473;-73
2022/04/22 16:25:24;;;;;;;393.77;168.57;;;;;;;;;;5052545;28;20449;-74
2022/04/22 16:27:57;;;;;;;408.80;185.83;;;;;;;;;;5053060;28;20489;-73
2022/04/22 16:30:33;;;;;;;403.13;171.33;;;;;;;;;;5052536;28;20452;-74
2022/04/22 16:33:18;;;;;;;401.87;176.40;;;;;;;;;;5053150;28;20457;-73
2022/04/22 16:38:59;;;;;;;411.77;180.57;;;;;;;;;;5051238;28;20551;-73